createdAt,value
2019-03-24T00:04:10.409Z,27.27
2019-03-24T00:06:40.239Z,22.33
2019-03-24T00:09:10.053Z,11.17
2019-03-24T00:11:39.908Z,16.93
2019-03-24T00:14:09.719Z,21.80
2019-03-24T00:16:39.529Z,14.57
2019-03-24T00:19:09.363Z,15.60
2019-03-24T00:21:39.171Z,16.53
2019-03-24T00:24:08.981Z,26.77
2019-03-24T00:26:38.812Z,15.90
2019-03-24T00:29:08.623Z,22.10
2019-03-24T00:31:38.448Z,19.10
2019-03-24T00:34:08.266Z,17.17
2019-03-24T00:36:38.105Z,10.30
2019-03-24T00:39:08.434Z,13.87
2019-03-24T00:41:38.234Z,17.30
2019-03-24T00:44:08.061Z,21.70
2019-03-24T00:46:37.858Z,17.07
2019-03-24T00:49:07.661Z,16.30
2019-03-24T00:51:37.487Z,14.40
2019-03-24T00:54:07.298Z,15.73
2019-03-24T00:56:37.106Z,17.67
2019-03-24T00:59:06.921Z,19.23
2019-03-24T01:01:36.719Z,8.83
2019-03-24T01:04:06.544Z,17.00
2019-03-24T01:06:36.365Z,22.67
2019-03-24T01:09:46.776Z,13.10
2019-03-24T01:12:16.648Z,9.83
2019-03-24T01:15:05.775Z,19.73
2019-03-24T01:17:35.593Z,18.33
2019-03-24T01:20:44.527Z,11.93
2019-03-24T01:26:15.991Z,13.90
2019-03-24T01:28:45.804Z,15.23
2019-03-24T01:31:15.611Z,17.33
2019-03-24T01:33:45.442Z,11.77
2019-03-24T01:36:15.250Z,28.13
2019-03-24T01:38:45.077Z,19.90
2019-03-24T01:41:14.884Z,24.60
2019-03-24T01:43:44.689Z,19.20
2019-03-24T01:46:14.503Z,16.30
2019-03-24T01:48:44.320Z,29.07
2019-03-24T01:51:14.138Z,15.83
2019-03-24T01:53:43.983Z,17.20
2019-03-24T01:56:13.794Z,23.30
2019-03-24T01:58:43.642Z,16.83
2019-03-24T02:01:13.447Z,12.17
2019-03-24T02:03:43.259Z,16.43
2019-03-24T02:06:13.084Z,20.50
2019-03-24T02:08:42.874Z,12.23
2019-03-24T02:11:12.704Z,12.43
2019-03-24T02:13:42.509Z,11.13
2019-03-24T02:16:12.321Z,19.77
2019-03-24T02:18:42.140Z,24.80
2019-03-24T02:21:11.948Z,21.00
2019-03-24T02:23:41.766Z,19.93
2019-03-24T02:26:11.585Z,17.70
2019-03-24T02:28:41.396Z,19.10
2019-03-24T02:31:11.219Z,19.80
2019-03-24T02:33:41.029Z,19.63
2019-03-24T02:36:10.832Z,20.43
2019-03-24T02:38:40.657Z,14.73
2019-03-24T02:41:10.459Z,9.67
2019-03-24T02:43:40.277Z,21.97
2019-03-24T02:48:58.886Z,23.30
2019-03-24T02:51:28.712Z,14.13
2019-03-24T02:53:58.510Z,15.17
2019-03-24T02:56:28.323Z,17.07
2019-03-24T02:58:58.125Z,17.57
2019-03-24T03:01:27.945Z,17.97
2019-03-24T03:03:57.759Z,18.53
2019-03-24T03:06:27.604Z,18.57
2019-03-24T03:08:57.427Z,24.47
2019-03-24T03:11:27.243Z,14.07
2019-03-24T03:13:57.079Z,24.33
2019-03-24T03:16:37.843Z,25.07
2019-03-24T03:18:58.470Z,23.63
2019-03-24T03:21:28.298Z,21.63
2019-03-24T03:23:58.152Z,11.53
2019-03-24T03:26:27.997Z,17.90
2019-03-24T03:28:57.824Z,13.93
2019-03-24T03:31:27.674Z,15.67
2019-03-24T03:33:57.489Z,23.77
2019-03-24T03:36:27.395Z,22.77
2019-03-24T03:38:57.237Z,14.40
2019-03-24T03:41:27.064Z,20.67
2019-03-24T03:43:56.948Z,14.07
2019-03-24T03:46:26.749Z,18.27
2019-03-24T03:48:56.565Z,18.30
2019-03-24T03:51:26.399Z,17.57
2019-03-24T03:53:58.898Z,26.00
2019-03-24T03:56:27.777Z,15.00
2019-03-24T03:58:57.566Z,8.40
2019-03-24T04:01:27.430Z,9.07
2019-03-24T04:03:57.239Z,19.53
2019-03-24T04:06:27.075Z,20.77
2019-03-24T04:08:56.891Z,13.97
2019-03-24T04:11:26.726Z,16.87
2019-03-24T04:13:56.535Z,14.53
2019-03-24T04:16:26.352Z,20.10
2019-03-24T04:18:56.169Z,11.30
2019-03-24T04:21:26.020Z,17.23
2019-03-24T04:24:14.662Z,12.00
2019-03-24T04:26:44.485Z,19.80
2019-03-24T04:29:14.289Z,18.13
2019-03-24T04:34:19.170Z,16.90
2019-03-24T04:36:48.992Z,23.97
2019-03-24T04:39:18.815Z,19.10
2019-03-24T04:41:48.622Z,21.43
2019-03-24T04:44:18.451Z,21.03
2019-03-24T04:46:48.270Z,27.10
2019-03-24T04:49:18.094Z,16.37
2019-03-24T04:51:47.931Z,17.47
2019-03-24T04:54:17.741Z,16.17
2019-03-24T04:56:47.569Z,20.97
2019-03-24T04:59:17.399Z,10.23
2019-03-24T05:01:47.244Z,18.50
2019-03-24T05:04:17.058Z,15.47
2019-03-24T05:07:25.931Z,16.80
2019-03-24T05:09:55.768Z,16.50
2019-03-24T05:12:25.577Z,16.17
2019-03-24T05:14:55.394Z,19.10
2019-03-24T05:17:27.359Z,17.67
2019-03-24T05:19:56.792Z,23.23
2019-03-24T05:22:26.636Z,15.93
2019-03-24T05:24:56.443Z,15.60
2019-03-24T05:27:26.293Z,21.17
2019-03-24T05:29:56.105Z,13.23
2019-03-24T05:32:25.936Z,23.13
2019-03-24T05:34:55.759Z,17.53
2019-03-24T05:37:25.579Z,19.70
2019-03-24T05:39:55.418Z,19.60
2019-03-24T05:42:25.238Z,25.03
2019-03-24T05:44:55.083Z,20.30
2019-03-24T05:47:24.935Z,17.23
2019-03-24T05:49:54.746Z,19.03
2019-03-24T05:52:24.586Z,29.77
2019-03-24T05:54:54.387Z,19.27
2019-03-24T05:57:24.222Z,18.97
2019-03-24T05:59:54.034Z,17.30
2019-03-24T06:02:23.841Z,15.73
2019-03-24T06:04:53.672Z,18.53
2019-03-24T06:07:23.486Z,15.23
2019-03-24T06:09:53.321Z,12.57
2019-03-24T06:12:23.127Z,14.23
2019-03-24T06:14:52.963Z,17.30
2019-03-24T06:17:22.794Z,13.43
2019-03-24T06:19:52.626Z,13.80
2019-03-24T06:22:22.454Z,25.10
2019-03-24T06:24:52.329Z,16.93
2019-03-24T06:27:22.171Z,15.23
2019-03-24T06:29:52.019Z,19.97
2019-03-24T06:32:21.896Z,16.63
2019-03-24T06:34:51.723Z,19.77
2019-03-24T06:37:21.581Z,16.57
2019-03-24T06:39:51.410Z,21.07
2019-03-24T06:42:21.244Z,14.43
2019-03-24T06:44:51.088Z,7.60
2019-03-24T06:47:20.915Z,15.33
2019-03-24T06:49:50.742Z,6.57
2019-03-24T06:52:20.672Z,13.73
2019-03-24T06:54:50.498Z,9.60
2019-03-24T06:57:20.341Z,11.83
2019-03-24T07:02:39.022Z,10.70
2019-03-24T07:08:18.132Z,13.17
2019-03-24T07:10:47.951Z,17.77
2019-03-24T07:13:17.850Z,21.70
2019-03-24T07:15:47.717Z,23.30
2019-03-24T07:18:17.587Z,12.30
2019-03-24T07:20:47.440Z,10.23
2019-03-24T07:23:17.247Z,16.63
2019-03-24T07:25:47.073Z,12.17
2019-03-24T07:28:16.896Z,7.67
2019-03-24T07:30:46.729Z,15.90
2019-03-24T07:33:16.550Z,17.73
2019-03-24T07:35:46.386Z,12.17
2019-03-24T07:38:16.226Z,16.07
2019-03-24T07:40:46.034Z,12.23
2019-03-24T07:43:15.867Z,10.97
2019-03-24T07:45:45.696Z,14.13
2019-03-24T07:48:19.415Z,13.07
2019-03-24T07:50:47.110Z,20.73
2019-03-24T07:53:17.076Z,9.63
2019-03-24T07:55:46.902Z,14.10
2019-03-24T07:58:16.746Z,14.67
2019-03-24T08:00:46.573Z,11.90
2019-03-24T08:03:16.419Z,15.80
2019-03-24T08:05:46.266Z,14.50
2019-03-24T08:08:16.101Z,12.77
2019-03-24T08:10:45.971Z,29.37
2019-03-24T08:13:15.858Z,15.27
2019-03-24T08:16:04.394Z,17.07
2019-03-24T08:18:34.221Z,18.83
2019-03-24T08:21:04.305Z,14.37
2019-03-24T08:23:34.167Z,13.03
2019-03-24T08:26:04.015Z,13.37
2019-03-24T08:28:33.856Z,13.30
2019-03-24T08:31:03.693Z,10.50
2019-03-24T08:33:33.543Z,13.87
2019-03-24T08:36:03.385Z,15.77
2019-03-24T08:38:33.237Z,12.40
2019-03-24T08:41:03.144Z,10.40
2019-03-24T08:43:34.738Z,11.00
2019-03-24T08:46:04.577Z,12.80
2019-03-24T08:48:40.962Z,16.60
2019-03-24T08:51:06.114Z,10.40
2019-03-24T08:53:35.970Z,12.37
2019-03-24T08:56:05.790Z,12.20
2019-03-24T08:58:35.622Z,11.60
2019-03-24T09:01:05.444Z,10.93
2019-03-24T09:03:54.229Z,14.33
2019-03-24T09:06:26.243Z,10.00
2019-03-24T09:08:56.144Z,19.13
2019-03-24T09:11:44.745Z,11.40
2019-03-24T09:14:14.581Z,15.30
2019-03-24T09:16:44.448Z,17.73
2019-03-24T09:19:14.308Z,9.43
2019-03-24T09:21:44.181Z,14.27
2019-03-24T09:24:14.011Z,15.63
2019-03-24T09:26:43.907Z,16.43
2019-03-24T09:29:13.759Z,11.50
2019-03-24T09:31:43.578Z,17.37
2019-03-24T09:34:13.534Z,16.33
2019-03-24T09:36:43.384Z,15.40
2019-03-24T09:39:13.255Z,19.80
2019-03-24T09:41:43.148Z,14.63
2019-03-24T09:47:25.560Z,12.33
2019-03-24T09:49:55.445Z,16.73
2019-03-24T09:52:25.295Z,15.60
2019-03-24T09:54:55.237Z,15.40
2019-03-24T09:57:25.132Z,17.70
2019-03-24T09:59:54.976Z,12.77
2019-03-24T10:02:24.861Z,18.40
2019-03-24T10:04:55.048Z,11.77
2019-03-24T10:07:26.269Z,12.17
2019-03-24T10:10:14.928Z,16.47
2019-03-24T10:12:56.113Z,14.53
2019-03-24T10:18:18.122Z,14.07
2019-03-24T10:20:47.973Z,12.87
2019-03-24T10:23:36.515Z,7.17
2019-03-24T10:26:25.112Z,7.47
2019-03-24T10:28:55.065Z,16.73
2019-03-24T10:31:43.658Z,6.73
2019-03-24T10:34:13.493Z,13.57
2019-03-24T10:36:43.307Z,10.93
2019-03-24T10:39:13.106Z,9.77
2019-03-24T10:41:42.940Z,13.53
2019-03-24T10:44:31.542Z,8.47
2019-03-24T10:47:01.488Z,8.70
2019-03-24T10:49:38.673Z,12.73
2019-03-24T10:52:08.539Z,16.40
2019-03-24T10:54:38.340Z,13.90
2019-03-24T10:57:08.175Z,7.97
2019-03-24T10:59:38.004Z,9.67
2019-03-24T11:02:07.860Z,7.70
2019-03-24T11:04:37.677Z,12.17
2019-03-24T11:07:26.284Z,7.30
2019-03-24T11:10:14.885Z,10.70
2019-03-24T11:12:44.700Z,10.80
2019-03-24T11:15:53.579Z,12.10
2019-03-24T11:18:23.406Z,12.17
2019-03-24T11:20:53.239Z,14.17
2019-03-24T11:23:23.101Z,12.33
2019-03-24T11:25:52.920Z,11.73
2019-03-24T11:28:22.863Z,8.60
2019-03-24T11:30:52.891Z,7.63
2019-03-24T11:33:22.803Z,11.47
2019-03-24T11:35:52.715Z,9.53
2019-03-24T11:38:22.671Z,8.60
2019-03-24T11:40:52.619Z,9.03
2019-03-24T11:43:22.525Z,8.60
2019-03-24T11:45:52.414Z,16.87
2019-03-24T11:48:22.345Z,8.30
2019-03-24T11:50:52.304Z,9.07
2019-03-24T11:53:22.356Z,11.13
2019-03-24T11:55:52.305Z,8.10
2019-03-24T11:58:22.237Z,11.57
2019-03-24T12:00:52.336Z,7.73
2019-03-24T12:03:22.236Z,8.27
2019-03-24T12:05:52.199Z,13.17
2019-03-24T12:08:23.309Z,18.53
2019-03-24T12:10:53.394Z,10.13
2019-03-24T12:13:23.494Z,6.93
2019-03-24T12:15:53.438Z,11.47
2019-03-24T12:18:23.390Z,11.47
2019-03-24T12:20:53.347Z,9.53
2019-03-24T12:23:23.329Z,14.73
2019-03-24T12:25:53.347Z,7.90
2019-03-24T12:28:23.306Z,9.63
2019-03-24T12:30:53.360Z,9.13
2019-03-24T12:33:23.336Z,5.30
2019-03-24T12:35:53.335Z,6.57
2019-03-24T12:38:23.418Z,10.60
2019-03-24T12:40:53.441Z,7.47
2019-03-24T12:43:23.409Z,8.37
2019-03-24T12:45:53.914Z,5.47
2019-03-24T12:48:24.064Z,6.90
2019-03-24T12:50:54.007Z,5.23
2019-03-24T12:53:24.031Z,9.03
2019-03-24T12:55:54.000Z,7.80
2019-03-24T12:58:23.949Z,7.33
2019-03-24T13:00:53.894Z,6.03
2019-03-24T13:03:23.859Z,3.53
2019-03-24T13:05:53.795Z,11.77
2019-03-24T13:08:23.770Z,5.13
2019-03-24T13:10:53.776Z,4.73
2019-03-24T13:13:23.710Z,6.47
2019-03-24T13:15:53.712Z,6.73
2019-03-24T13:18:23.738Z,5.13
2019-03-24T13:20:53.656Z,6.53
2019-03-24T13:23:23.658Z,4.13
2019-03-24T13:25:53.651Z,5.40
2019-03-24T13:28:23.642Z,5.07
2019-03-24T13:30:53.609Z,3.13
2019-03-24T13:33:23.601Z,3.03
2019-03-24T13:41:37.242Z,9.60
2019-03-24T13:44:07.272Z,7.93
2019-03-24T13:46:37.217Z,10.80
2019-03-24T13:49:07.278Z,12.40
2019-03-24T13:51:37.260Z,7.77
2019-03-24T13:54:07.225Z,9.03
2019-03-24T13:56:37.160Z,8.03
2019-03-24T13:59:07.111Z,5.97
2019-03-24T14:01:37.006Z,4.30
2019-03-24T14:04:06.999Z,3.70
2019-03-24T14:06:36.934Z,3.73
2019-03-24T14:09:09.679Z,4.57
2019-03-24T14:14:28.703Z,1.40
2019-03-24T14:16:58.803Z,2.47
2019-03-24T14:19:28.756Z,2.87
2019-03-24T14:22:37.710Z,2.57
2019-03-24T14:28:17.214Z,2.20
2019-03-24T14:30:48.231Z,2.40
2019-03-24T14:33:18.365Z,4.57
2019-03-24T14:35:48.679Z,6.33
2019-03-24T14:38:18.665Z,3.13
2019-03-24T14:40:48.599Z,3.83
2019-03-24T14:43:18.589Z,2.50
2019-03-24T14:45:48.583Z,2.77
2019-03-24T14:48:18.618Z,1.97
2019-03-24T14:50:54.504Z,5.97
2019-03-24T14:53:20.378Z,1.93
2019-03-24T14:55:50.364Z,2.57
2019-03-24T14:58:20.340Z,3.17
2019-03-24T15:00:50.463Z,1.83
2019-03-24T15:03:20.579Z,1.07
2019-03-24T15:05:50.553Z,5.80
2019-03-24T15:08:20.600Z,4.07
2019-03-24T15:10:50.594Z,5.50
2019-03-24T15:13:20.711Z,3.40
2019-03-24T15:15:50.764Z,5.13
2019-03-24T15:18:39.467Z,3.63
2019-03-24T15:21:11.393Z,5.43
2019-03-24T15:23:41.152Z,2.33
2019-03-24T15:26:11.204Z,3.30
2019-03-24T15:28:41.435Z,2.33
2019-03-24T15:31:11.429Z,6.37
2019-03-24T15:33:41.516Z,4.60
2019-03-24T15:36:11.564Z,5.73
2019-03-24T15:38:41.600Z,2.37
2019-03-24T15:41:11.617Z,7.83
2019-03-24T15:43:41.575Z,5.30
2019-03-24T15:46:11.495Z,4.70
2019-03-24T15:48:41.487Z,1.23
2019-03-24T15:51:16.727Z,2.23
2019-03-24T15:53:43.110Z,2.57
2019-03-24T15:58:49.022Z,5.13
2019-03-24T16:01:19.002Z,4.77
2019-03-24T16:03:49.058Z,4.57
2019-03-24T16:06:18.974Z,7.90
2019-03-24T16:08:48.997Z,2.90
2019-03-24T16:11:19.016Z,6.83
2019-03-24T16:13:49.460Z,4.63
2019-03-24T16:16:19.406Z,4.40
2019-03-24T16:19:08.077Z,5.20
2019-03-24T16:21:38.007Z,3.93
2019-03-24T16:24:07.911Z,3.80
2019-03-24T16:26:37.872Z,2.47
2019-03-24T16:31:58.361Z,2.77
2019-03-24T16:34:28.284Z,8.07
2019-03-24T16:36:58.250Z,5.53
2019-03-24T16:39:28.319Z,3.90
2019-03-24T16:41:58.272Z,4.40
2019-03-24T16:44:28.195Z,9.67
2019-03-24T16:46:58.227Z,2.97
2019-03-24T16:49:28.296Z,6.37
2019-03-24T16:51:58.236Z,5.47
2019-03-24T16:54:29.064Z,6.80
2019-03-24T16:56:59.108Z,6.83
2019-03-24T17:02:18.000Z,7.40
2019-03-24T17:04:48.017Z,9.27
2019-03-24T17:07:18.030Z,7.83
2019-03-24T17:09:48.002Z,9.07
2019-03-24T17:12:17.930Z,7.23
2019-03-24T17:14:48.144Z,13.67
2019-03-24T17:17:18.095Z,7.87
2019-03-24T17:19:47.999Z,5.03
2019-03-24T17:22:18.097Z,3.03
2019-03-24T17:24:48.138Z,2.87
2019-03-24T17:27:18.430Z,7.63
2019-03-24T17:29:48.310Z,1.33
2019-03-24T17:32:18.264Z,3.03
2019-03-24T17:34:48.188Z,0.63
2019-03-24T17:37:18.092Z,0.73
2019-03-24T17:39:48.154Z,0.80
2019-03-24T17:42:18.117Z,1.67
2019-03-24T17:44:48.134Z,1.17
2019-03-24T17:47:18.027Z,0.73
2019-03-24T17:49:47.940Z,0.87
2019-03-24T17:52:17.947Z,1.00
2019-03-24T17:54:47.850Z,1.23
2019-03-24T17:57:20.117Z,3.80
2019-03-24T17:59:50.073Z,2.57
2019-03-24T18:02:19.957Z,3.13
2019-03-24T18:04:49.886Z,6.67
2019-03-24T18:07:19.861Z,3.20
2019-03-24T18:09:49.812Z,3.33
2019-03-24T18:12:19.794Z,4.43
2019-03-24T18:14:49.759Z,6.27
2019-03-24T18:17:19.681Z,8.27
2019-03-24T18:19:49.640Z,0.73
2019-03-24T18:22:19.539Z,2.73
2019-03-24T18:24:49.455Z,3.77
2019-03-24T18:27:19.368Z,2.93
2019-03-24T18:29:49.298Z,5.77
2019-03-24T18:32:19.293Z,6.47
2019-03-24T18:35:08.325Z,6.67
2019-03-24T18:37:38.233Z,6.73
2019-03-24T18:43:04.778Z,5.20
2019-03-24T18:45:53.333Z,4.77
2019-03-24T18:48:23.238Z,5.57
2019-03-24T18:50:53.099Z,3.30
2019-03-24T18:53:22.995Z,2.40
2019-03-24T18:55:52.923Z,2.70
2019-03-24T18:58:22.812Z,2.93
2019-03-24T19:00:52.766Z,2.33
2019-03-24T19:03:22.668Z,9.13
2019-03-24T19:05:52.788Z,4.00
2019-03-24T19:08:22.718Z,5.70
2019-03-24T19:10:52.686Z,4.57
2019-03-24T19:13:22.681Z,5.47
2019-03-24T19:15:52.718Z,5.73
2019-03-24T19:18:22.620Z,2.97
2019-03-24T19:20:53.617Z,6.67
2019-03-24T19:23:23.575Z,2.83
2019-03-24T19:25:53.528Z,4.93
2019-03-24T19:28:23.458Z,0.93
2019-03-24T19:30:53.409Z,2.00
2019-03-24T19:33:23.463Z,10.13
2019-03-24T19:35:53.476Z,8.10
2019-03-24T19:38:43.769Z,5.23
2019-03-24T19:41:13.764Z,4.10
2019-03-24T19:43:44.010Z,4.57
2019-03-24T19:46:14.129Z,8.43
2019-03-24T19:48:44.204Z,7.73
2019-03-24T19:51:14.189Z,4.27
2019-03-24T19:53:44.824Z,5.17
2019-03-24T19:56:14.993Z,3.67
2019-03-24T19:58:45.482Z,8.70
2019-03-24T20:01:15.543Z,5.97
2019-03-24T20:03:45.478Z,4.20
2019-03-24T20:06:15.598Z,4.90
2019-03-24T20:08:45.739Z,5.60
2019-03-24T20:11:15.761Z,5.50
2019-03-24T20:13:45.680Z,2.40
2019-03-24T20:19:05.266Z,8.70
2019-03-24T20:21:35.203Z,6.77
2019-03-24T20:24:05.451Z,2.40
2019-03-24T20:26:35.394Z,12.33
2019-03-24T20:29:05.371Z,3.77
2019-03-24T20:31:35.316Z,3.83
2019-03-24T20:34:05.253Z,6.40
2019-03-24T20:36:35.306Z,4.73
2019-03-24T20:39:25.630Z,8.13
2019-03-24T20:41:55.629Z,6.90
2019-03-24T20:44:25.855Z,8.47
2019-03-24T20:46:55.778Z,6.67
2019-03-24T20:49:26.125Z,7.17
2019-03-24T20:51:56.268Z,6.47
2019-03-24T20:54:26.517Z,8.30
2019-03-24T20:56:56.443Z,4.27
2019-03-24T20:59:26.500Z,4.17
2019-03-24T21:01:56.618Z,4.30
2019-03-24T21:04:26.606Z,6.53
2019-03-24T21:06:56.582Z,1.67
2019-03-24T21:09:26.490Z,4.60
2019-03-24T21:11:57.049Z,7.40
2019-03-24T21:14:26.937Z,4.13
2019-03-24T21:16:57.346Z,3.80
2019-03-24T21:19:27.269Z,3.73
2019-03-24T21:22:16.011Z,12.27
2019-03-24T21:24:46.158Z,9.10
2019-03-24T21:27:16.097Z,8.27
2019-03-24T21:29:46.120Z,4.17
2019-03-24T21:32:16.175Z,8.83
2019-03-24T21:34:46.428Z,5.73
2019-03-24T21:37:16.577Z,4.17
2019-03-24T21:39:46.500Z,5.37
2019-03-24T21:42:17.130Z,9.43
2019-03-24T21:44:47.023Z,9.13
2019-03-24T21:47:17.188Z,8.83
2019-03-24T21:49:47.085Z,4.73
2019-03-24T21:54:52.483Z,10.10
2019-03-24T21:57:22.435Z,9.27
2019-03-24T21:59:52.620Z,8.87
2019-03-24T22:02:22.841Z,6.80
2019-03-24T22:04:52.843Z,4.00
2019-03-24T22:07:22.871Z,8.53
2019-03-24T22:09:52.851Z,13.87
2019-03-24T22:12:22.865Z,7.33
2019-03-24T22:14:52.814Z,6.23
2019-03-24T22:17:22.861Z,13.27
2019-03-24T22:19:52.918Z,6.40
2019-03-24T22:22:23.125Z,6.27
2019-03-24T22:24:53.012Z,11.23
2019-03-24T22:27:23.271Z,4.67
2019-03-24T22:29:53.257Z,7.93
2019-03-24T22:32:23.148Z,11.97
2019-03-24T22:34:53.830Z,6.57
2019-03-24T22:37:23.799Z,8.53
2019-03-24T22:39:54.629Z,5.13
2019-03-24T22:42:24.524Z,9.17
2019-03-24T22:44:55.065Z,6.07
2019-03-24T22:47:24.981Z,7.80
2019-03-24T22:49:55.468Z,9.03
2019-03-24T22:52:44.156Z,7.23
2019-03-24T22:58:28.843Z,6.73
2019-03-24T23:00:58.965Z,15.90
2019-03-24T23:03:28.968Z,12.23
2019-03-24T23:05:58.887Z,5.00
2019-03-24T23:08:28.926Z,7.67
2019-03-24T23:10:58.907Z,8.07
2019-03-24T23:13:28.898Z,4.63
2019-03-24T23:15:58.865Z,9.17
2019-03-24T23:18:29.138Z,2.13
2019-03-24T23:20:59.176Z,5.90
2019-03-24T23:23:29.189Z,5.37
2019-03-24T23:25:59.121Z,7.80
2019-03-24T23:28:29.985Z,8.77
2019-03-24T23:30:59.939Z,8.37
2019-03-24T23:33:29.813Z,7.23
2019-03-24T23:35:59.870Z,10.30
2019-03-24T23:38:29.826Z,5.40
2019-03-24T23:41:00.018Z,6.47
2019-03-24T23:43:29.930Z,5.40
2019-03-24T23:45:59.992Z,8.17
2019-03-24T23:48:30.052Z,8.90
2019-03-24T23:51:00.299Z,8.67
2019-03-24T23:53:30.231Z,9.47
2019-03-24T23:56:00.357Z,7.57
2019-03-24T23:58:40.227Z,7.03
